createdAt,value
2022-11-17T00:00:13.052Z,95413.72
2022-11-17T00:02:45.520Z,95408.13
2022-11-17T00:05:17.279Z,95396.56
2022-11-17T00:07:49.174Z,95394.06
2022-11-17T00:10:29.916Z,95396.56
2022-11-17T00:13:13.515Z,95381.72
2022-11-17T00:15:51.061Z,95363.41
2022-11-17T00:18:40.582Z,95371.13
2022-11-17T00:21:21.724Z,95366.03
2022-11-17T00:23:58.513Z,95360.34
2022-11-17T00:26:31.840Z,95367.28
2022-11-17T00:29:03.147Z,95348.75
2022-11-17T00:31:47.170Z,95343.34
2022-11-17T00:34:24.925Z,95340.09
2022-11-17T00:36:55.568Z,95337.19
2022-11-17T00:39:26.175Z,95320.56
2022-11-17T00:41:58.465Z,95308.91
2022-11-17T00:44:30.485Z,95303.56
2022-11-17T00:47:23.578Z,95284.75
2022-11-17T00:49:55.999Z,95268.13
2022-11-17T00:52:29.929Z,95260.34
2022-11-17T00:55:04.792Z,95253.78
2022-11-17T00:57:34.978Z,95252.50
2022-11-17T01:00:10.547Z,95238.66
2022-11-17T01:02:42.746Z,95242.19
2022-11-17T01:05:16.996Z,95238.41
2022-11-17T01:07:49.953Z,95225.56
2022-11-17T01:10:19.378Z,95223.97
2022-11-17T01:12:56.188Z,95221.88
2022-11-17T01:15:27.718Z,95223.03
2022-11-17T01:17:58.188Z,95224.03
2022-11-17T01:20:31.508Z,95205.59
2022-11-17T01:23:04.092Z,95207.91
2022-11-17T01:25:33.963Z,95206.63
2022-11-17T01:28:07.772Z,95220.28
2022-11-17T01:30:45.573Z,95201.00
2022-11-17T01:33:20.179Z,95187.00
2022-11-17T01:36:00.379Z,95217.69
2022-11-17T01:38:34.597Z,95189.13
2022-11-17T01:41:24.113Z,95195.09
2022-11-17T01:43:59.290Z,95192.69
2022-11-17T01:46:33.728Z,95178.56
2022-11-17T01:49:06.374Z,95169.31
2022-11-17T01:51:43.130Z,95162.63
2022-11-17T01:54:17.381Z,95156.50
2022-11-17T01:56:51.684Z,95146.44
2022-11-17T01:59:24.234Z,95144.50
2022-11-17T02:01:57.013Z,95144.41
2022-11-17T02:04:29.177Z,95149.66
2022-11-17T02:07:08.800Z,95136.50
2022-11-17T02:09:42.105Z,95142.41
2022-11-17T02:12:16.751Z,95132.50
2022-11-17T02:14:50.634Z,95141.56
2022-11-17T02:17:33.422Z,95135.47
2022-11-17T02:20:06.594Z,95125.81
2022-11-17T02:22:58.384Z,95116.56
2022-11-17T02:25:51.543Z,95119.06
2022-11-17T02:28:25.577Z,95107.88
2022-11-17T02:31:10.878Z,95118.50
2022-11-17T02:33:47.949Z,95099.94
2022-11-17T02:36:24.601Z,95099.09
2022-11-17T02:39:10.979Z,95081.34
2022-11-17T02:41:45.366Z,95087.59
2022-11-17T02:44:29.272Z,95078.50
2022-11-17T02:47:04.157Z,95060.91
2022-11-17T02:49:36.892Z,95058.66
2022-11-17T02:52:08.008Z,95043.31
2022-11-17T02:54:38.683Z,95054.63
2022-11-17T02:57:23.299Z,95044.97
2022-11-17T02:59:58.698Z,95044.41
2022-11-17T03:02:46.691Z,95034.81
2022-11-17T03:05:32.833Z,95045.81
2022-11-17T03:08:19.116Z,95042.66
2022-11-17T03:10:55.635Z,95041.66
2022-11-17T03:13:30.792Z,95057.31
2022-11-17T03:16:13.076Z,95050.19
2022-11-17T03:18:51.871Z,95042.09
2022-11-17T03:21:28.960Z,95039.25
2022-11-17T03:24:04.449Z,95031.59
2022-11-17T03:26:36.618Z,95034.91
2022-11-17T03:29:17.514Z,95035.66
2022-11-17T03:31:51.697Z,95025.44
2022-11-17T03:34:24.702Z,95018.06
2022-11-17T03:37:02.866Z,95017.31
2022-11-17T03:39:36.873Z,95025.53
2022-11-17T03:42:10.794Z,95024.41
2022-11-17T03:44:44.080Z,95022.50
2022-11-17T03:47:19.102Z,95020.56
2022-11-17T03:49:53.112Z,95018.63
2022-11-17T03:52:29.833Z,95005.28
2022-11-17T03:55:03.191Z,95007.31
2022-11-17T03:57:37.713Z,95000.13
2022-11-17T04:00:18.348Z,94987.97
2022-11-17T04:02:56.792Z,94969.94
2022-11-17T04:05:27.485Z,94984.75
2022-11-17T04:08:00.123Z,94987.59
2022-11-17T04:10:31.058Z,94955.94
2022-11-17T04:13:15.671Z,94972.59
2022-11-17T04:16:00.241Z,94970.75
2022-11-17T04:18:38.387Z,94974.81
2022-11-17T04:21:14.110Z,94968.47
2022-11-17T04:23:46.298Z,94973.97
2022-11-17T04:26:33.946Z,94967.53
2022-11-17T04:29:07.200Z,94961.09
2022-11-17T04:31:43.497Z,94959.44
2022-11-17T04:34:15.650Z,94960.97
2022-11-17T04:36:51.011Z,94958.06
2022-11-17T04:39:25.107Z,94957.59
2022-11-17T04:41:57.465Z,94962.94
2022-11-17T04:44:31.474Z,94948.28
2022-11-17T04:47:03.878Z,94944.25
2022-11-17T04:49:39.806Z,94950.59
2022-11-17T04:52:24.241Z,94956.59
2022-11-17T04:54:58.817Z,94952.16
2022-11-17T04:57:33.030Z,94942.38
2022-11-17T05:00:12.153Z,94960.66
2022-11-17T05:02:45.927Z,94955.06
2022-11-17T05:05:24.047Z,94947.69
2022-11-17T05:08:07.030Z,94941.72
2022-11-17T05:10:52.674Z,94949.09
2022-11-17T05:13:27.641Z,94926.91
2022-11-17T05:16:12.640Z,94924.13
2022-11-17T05:18:47.936Z,94926.09
2022-11-17T05:21:25.042Z,94920.53
2022-11-17T05:23:56.356Z,94921.91
2022-11-17T05:26:30.231Z,94908.28
2022-11-17T05:29:04.768Z,94915.47
2022-11-17T05:31:36.107Z,94915.34
2022-11-17T05:34:07.908Z,94904.59
2022-11-17T05:36:41.566Z,94911.72
2022-11-17T05:39:17.139Z,94903.72
2022-11-17T05:41:52.410Z,94901.66
2022-11-17T05:44:25.512Z,94902.59
2022-11-17T05:46:58.032Z,94908.34
2022-11-17T05:49:32.344Z,94916.66
2022-11-17T05:52:04.856Z,94913.00
2022-11-17T05:54:38.231Z,94932.69
2022-11-17T05:57:30.431Z,94915.06
2022-11-17T06:00:11.728Z,94924.91
2022-11-17T06:02:46.517Z,94928.75
2022-11-17T06:05:30.121Z,94911.06
2022-11-17T06:08:01.730Z,94918.69
2022-11-17T06:10:37.169Z,94924.66
2022-11-17T06:13:16.895Z,94918.59
2022-11-17T06:15:53.211Z,94929.78
2022-11-17T06:18:31.344Z,94917.56
2022-11-17T06:21:03.113Z,94916.56
2022-11-17T06:23:37.544Z,94918.09
2022-11-17T06:26:11.803Z,94928.59
2022-11-17T06:28:46.552Z,94918.44
2022-11-17T06:31:23.544Z,94915.81
2022-11-17T06:34:05.704Z,94918.78
2022-11-17T06:36:51.272Z,94928.25
2022-11-17T06:39:27.727Z,94918.41
2022-11-17T06:41:59.849Z,94901.47
2022-11-17T06:44:30.359Z,94924.97
2022-11-17T06:47:01.625Z,94953.47
2022-11-17T06:49:35.421Z,94961.38
2022-11-17T06:52:11.932Z,94954.34
2022-11-17T06:54:47.489Z,94950.25
2022-11-17T06:57:32.982Z,94947.31
2022-11-17T07:00:18.018Z,94940.78
2022-11-17T07:02:58.629Z,94936.50
2022-11-17T07:05:30.102Z,94940.94
2022-11-17T07:08:02.604Z,94957.75
2022-11-17T07:10:49.241Z,94966.59
2022-11-17T07:13:48.031Z,94942.06
2022-11-17T07:16:31.348Z,94962.91
2022-11-17T07:19:08.623Z,94960.59
2022-11-17T07:21:59.002Z,94958.47
2022-11-17T07:24:57.038Z,94969.44
2022-11-17T07:27:36.540Z,94965.69
2022-11-17T07:30:23.795Z,94975.16
2022-11-17T07:33:18.131Z,94978.66
2022-11-17T07:36:01.564Z,94976.81
2022-11-17T07:38:40.806Z,94968.59
2022-11-17T07:41:40.382Z,94971.56
2022-11-17T07:44:19.321Z,94975.16
2022-11-17T07:47:16.406Z,94972.66
2022-11-17T07:49:53.658Z,94967.25
2022-11-17T07:52:28.748Z,94978.31
2022-11-17T07:55:04.166Z,94972.75
2022-11-17T07:57:44.093Z,94980.03
2022-11-17T08:00:27.253Z,94981.91
2022-11-17T08:03:05.538Z,94984.63
2022-11-17T08:05:45.788Z,94984.56
2022-11-17T08:08:24.632Z,94993.31
2022-11-17T08:11:18.140Z,94984.94
2022-11-17T08:13:51.052Z,94989.47
2022-11-17T08:16:30.937Z,94997.25
2022-11-17T08:19:12.636Z,94999.84
2022-11-17T08:21:53.624Z,95005.28
2022-11-17T08:24:45.518Z,95012.19
2022-11-17T08:27:20.006Z,95023.03
2022-11-17T08:29:56.663Z,95019.25
2022-11-17T08:32:33.941Z,95024.50
2022-11-17T08:35:15.717Z,95029.03
2022-11-17T08:37:53.068Z,95036.66
2022-11-17T08:40:33.569Z,95047.25
2022-11-17T08:43:18.335Z,95041.47
2022-11-17T08:45:59.956Z,95044.84
2022-11-17T08:48:35.764Z,95045.41
2022-11-17T08:51:20.088Z,95047.97
2022-11-17T08:53:54.797Z,95052.69
2022-11-17T08:56:40.079Z,95050.84
2022-11-17T08:59:20.620Z,95052.69
2022-11-17T09:02:10.772Z,95053.97
2022-11-17T09:04:46.819Z,95062.25
2022-11-17T09:07:24.253Z,95063.25
2022-11-17T09:10:22.570Z,95062.44
2022-11-17T09:13:08.498Z,95062.25
2022-11-17T09:15:50.064Z,95067.69
2022-11-17T09:18:25.177Z,95064.44
2022-11-17T09:21:16.214Z,95075.13
2022-11-17T09:23:50.370Z,95075.03
2022-11-17T09:26:23.989Z,95075.72
2022-11-17T09:29:02.022Z,95083.88
2022-11-17T09:31:38.900Z,95079.25
2022-11-17T09:34:17.318Z,95086.69
2022-11-17T09:36:52.614Z,95087.44
2022-11-17T09:39:28.409Z,95089.41
2022-11-17T09:42:12.783Z,95092.06
2022-11-17T09:44:43.622Z,95095.59
2022-11-17T09:47:18.504Z,95089.91
2022-11-17T09:49:58.402Z,95098.53
2022-11-17T09:52:30.945Z,95100.63
2022-11-17T09:55:00.006Z,95101.38
2022-11-17T09:57:32.682Z,95097.78
2022-11-17T10:00:06.060Z,95108.53
2022-11-17T10:02:34.452Z,95107.28
2022-11-17T10:05:02.759Z,95125.78
2022-11-17T10:07:33.255Z,95115.28
2022-11-17T10:10:02.659Z,95107.06
2022-11-17T10:12:51.808Z,95110.56
2022-11-17T10:15:24.100Z,95105.81
2022-11-17T10:17:52.876Z,95109.72
2022-11-17T10:20:21.186Z,95120.63
2022-11-17T10:22:53.630Z,95116.31
2022-11-17T10:25:25.045Z,95119.34
2022-11-17T10:27:54.206Z,95121.53
2022-11-17T10:30:23.711Z,95118.75
2022-11-17T10:32:52.894Z,95106.91
2022-11-17T10:38:17.342Z,95117.31
2022-11-17T10:40:48.093Z,95113.22
2022-11-17T10:43:22.840Z,95118.72
2022-11-17T10:45:52.206Z,95118.31
2022-11-17T10:48:27.497Z,95120.22
2022-11-17T10:50:57.116Z,95126.41
2022-11-17T10:53:42.970Z,95130.09
2022-11-17T10:56:15.505Z,95138.13
2022-11-17T10:59:02.812Z,95137.03
2022-11-17T11:01:32.481Z,95136.88
2022-11-17T11:04:03.691Z,95137.47
2022-11-17T11:06:32.443Z,95140.59
2022-11-17T11:09:03.459Z,95138.41
2022-11-17T11:11:39.914Z,95150.16
2022-11-17T11:14:14.296Z,95134.28
2022-11-17T11:16:47.854Z,95141.38
2022-11-17T11:19:17.063Z,95144.41
2022-11-17T11:21:59.529Z,95141.72
2022-11-17T11:24:32.194Z,95141.38
2022-11-17T11:27:04.759Z,95146.53
2022-11-17T11:29:39.415Z,95145.06
2022-11-17T11:32:18.029Z,95147.75
2022-11-17T11:34:57.074Z,95145.13
2022-11-17T11:37:26.594Z,95147.63
2022-11-17T11:40:00.657Z,95155.25
2022-11-17T11:42:38.213Z,95145.47
2022-11-17T11:45:16.547Z,95151.56
2022-11-17T11:47:58.396Z,95151.56
2022-11-17T11:50:27.495Z,95152.53
2022-11-17T11:52:57.139Z,95151.66
2022-11-17T11:55:29.327Z,95150.28
2022-11-17T11:58:01.948Z,95156.38
2022-11-17T12:00:30.534Z,95149.28
2022-11-17T12:03:03.671Z,95164.66
2022-11-17T12:05:35.360Z,95161.19
2022-11-17T12:08:10.585Z,95159.72
2022-11-17T12:10:42.865Z,95158.97
2022-11-17T12:13:13.849Z,95160.34
2022-11-17T12:15:42.190Z,95161.16
2022-11-17T12:18:14.480Z,95165.59
2022-11-17T12:20:56.563Z,95157.94
2022-11-17T12:23:31.091Z,95164.31
2022-11-17T12:26:00.899Z,95169.72
2022-11-17T12:28:31.549Z,95169.84
2022-11-17T12:31:05.135Z,95170.13
2022-11-17T12:34:06.206Z,95167.13
2022-11-17T12:36:35.180Z,95171.41
2022-11-17T12:39:04.170Z,95172.19
2022-11-17T12:42:01.992Z,95177.72
2022-11-17T12:44:51.766Z,95173.78
2022-11-17T12:47:21.025Z,95176.59
2022-11-17T12:49:58.635Z,95181.63
2022-11-17T12:52:32.749Z,95175.34
2022-11-17T12:55:04.487Z,95183.78
2022-11-17T12:57:34.395Z,95182.13
2022-11-17T13:00:07.836Z,95187.47
2022-11-17T13:02:54.931Z,95178.09
2022-11-17T13:05:24.282Z,95182.28
2022-11-17T13:07:54.525Z,95173.19
2022-11-17T13:10:27.360Z,95171.59
2022-11-17T13:13:11.080Z,95171.75
2022-11-17T13:15:46.270Z,95176.81
2022-11-17T13:18:23.243Z,95179.34
2022-11-17T13:20:51.701Z,95188.09
2022-11-17T13:23:22.393Z,95177.91
2022-11-17T13:25:51.189Z,95177.97
2022-11-17T13:28:29.065Z,95168.59
2022-11-17T13:30:58.808Z,95178.22
2022-11-17T13:33:27.388Z,95182.88
2022-11-17T13:36:08.374Z,95170.69
2022-11-17T13:38:36.717Z,95176.03
2022-11-17T13:41:05.300Z,95171.41
2022-11-17T13:43:39.323Z,95178.13
2022-11-17T13:46:09.567Z,95177.31
2022-11-17T13:48:38.287Z,95172.81
2022-11-17T13:51:23.127Z,95171.09
2022-11-17T13:53:52.351Z,95175.47
2022-11-17T13:56:24.014Z,95172.75
2022-11-17T13:58:52.555Z,95179.75
2022-11-17T14:01:25.257Z,95179.34
2022-11-17T14:03:53.694Z,95172.88
2022-11-17T14:06:22.380Z,95175.84
2022-11-17T14:09:05.386Z,95177.38
2022-11-17T14:11:33.753Z,95173.63
2022-11-17T14:14:02.042Z,95178.63
2022-11-17T14:16:36.255Z,95182.19
2022-11-17T14:19:05.891Z,95181.72
2022-11-17T14:21:34.466Z,95173.38
2022-11-17T14:24:22.379Z,95178.59
2022-11-17T14:26:51.478Z,95182.94
2022-11-17T14:29:20.066Z,95184.81
2022-11-17T14:31:50.845Z,95185.13
2022-11-17T14:34:19.421Z,95188.00
2022-11-17T14:36:53.604Z,95187.59
2022-11-17T14:39:21.946Z,95191.28
2022-11-17T14:41:51.238Z,95196.59
2022-11-17T14:44:19.572Z,95194.19
2022-11-17T14:46:49.351Z,95196.34
2022-11-17T14:49:18.007Z,95196.25
2022-11-17T14:51:49.614Z,95201.53
2022-11-17T14:54:17.930Z,95197.91
2022-11-17T14:56:46.340Z,95193.28
2022-11-17T14:59:16.086Z,95206.06
2022-11-17T15:01:47.231Z,95206.91
2022-11-17T15:07:05.575Z,95212.13
2022-11-17T15:09:34.391Z,95212.69
2022-11-17T15:12:02.778Z,95217.25
2022-11-17T15:14:31.083Z,95212.03
2022-11-17T15:16:59.401Z,95219.41
2022-11-17T15:19:29.066Z,95223.13
2022-11-17T15:21:57.758Z,95220.88
2022-11-17T15:24:26.056Z,95227.16
2022-11-17T15:26:54.352Z,95229.63
2022-11-17T15:29:22.727Z,95229.63
2022-11-17T15:31:50.994Z,95229.91
2022-11-17T15:34:20.647Z,95240.75
2022-11-17T15:36:51.057Z,95232.59
2022-11-17T15:39:25.055Z,95235.59
2022-11-17T15:41:57.186Z,95244.63
2022-11-17T15:44:25.660Z,95238.34
2022-11-17T15:46:54.353Z,95245.16
2022-11-17T15:49:22.653Z,95249.97
2022-11-17T15:51:52.341Z,95249.66
2022-11-17T15:54:21.676Z,95248.50
2022-11-17T15:56:51.061Z,95245.75
2022-11-17T15:59:19.769Z,95248.53
2022-11-17T16:01:48.277Z,95247.84
2022-11-17T16:04:16.643Z,95255.16
2022-11-17T16:06:46.540Z,95249.78
2022-11-17T16:09:16.760Z,95256.56
2022-11-17T16:11:45.576Z,95251.31
2022-11-17T16:14:15.187Z,95259.88
2022-11-17T16:16:43.883Z,95261.16
2022-11-17T16:19:12.204Z,95265.31
2022-11-17T16:21:40.481Z,95270.75
2022-11-17T16:24:11.158Z,95270.75
2022-11-17T16:26:40.865Z,95271.97
2022-11-17T16:29:09.416Z,95278.16
2022-11-17T16:31:37.958Z,95285.16
2022-11-17T16:34:07.215Z,95288.56
2022-11-17T16:36:37.040Z,95293.75
2022-11-17T16:39:06.104Z,95296.06
2022-11-17T16:41:35.143Z,95292.63
2022-11-17T16:44:07.693Z,95299.63
2022-11-17T16:46:36.080Z,95299.09
2022-11-17T16:49:05.457Z,95303.06
2022-11-17T16:51:33.874Z,95300.44
2022-11-17T16:54:03.037Z,95300.38
2022-11-17T16:56:34.070Z,95309.53
2022-11-17T16:59:02.386Z,95310.63
2022-11-17T17:01:32.666Z,95309.69
2022-11-17T17:04:01.953Z,95314.66
2022-11-17T17:06:32.549Z,95314.66
2022-11-17T17:09:04.966Z,95311.06
2022-11-17T17:11:33.568Z,95317.25
2022-11-17T17:14:03.657Z,95318.16
2022-11-17T17:16:34.369Z,95320.00
2022-11-17T17:19:04.310Z,95321.84
2022-11-17T17:21:33.019Z,95320.84
2022-11-17T17:24:01.334Z,95323.91
2022-11-17T17:26:30.825Z,95325.63
2022-11-17T17:29:00.358Z,95330.53
2022-11-17T17:31:32.529Z,95330.34
2022-11-17T17:34:01.331Z,95334.03
2022-11-17T17:36:29.967Z,95332.38
2022-11-17T17:39:01.961Z,95343.03
2022-11-17T17:41:32.107Z,95332.09
2022-11-17T17:44:01.642Z,95333.66
2022-11-17T17:46:31.042Z,95333.50
2022-11-17T17:49:00.937Z,95345.88
2022-11-17T17:51:30.556Z,95345.94
2022-11-17T17:54:02.346Z,95338.09
2022-11-17T17:56:31.655Z,95345.75
2022-11-17T17:59:00.111Z,95344.88
2022-11-17T18:01:29.205Z,95348.66
2022-11-17T18:04:01.787Z,95349.91
2022-11-17T18:06:31.876Z,95345.94
2022-11-17T18:09:00.322Z,95353.56
2022-11-17T18:11:28.882Z,95352.41
2022-11-17T18:13:57.597Z,95357.13
2022-11-17T18:16:27.716Z,95358.38
2022-11-17T18:18:58.146Z,95363.06
2022-11-17T18:21:26.939Z,95358.25
2022-11-17T18:23:56.964Z,95371.63
2022-11-17T18:26:26.199Z,95378.75
2022-11-17T18:28:55.322Z,95382.66
2022-11-17T18:31:24.408Z,95379.88
2022-11-17T18:33:52.973Z,95386.38
2022-11-17T18:36:21.375Z,95383.13
2022-11-17T18:38:49.908Z,95387.53
2022-11-17T18:41:20.179Z,95391.22
2022-11-17T18:43:48.736Z,95381.75
2022-11-17T18:46:17.928Z,95391.25
2022-11-17T18:48:47.848Z,95383.97
2022-11-17T18:51:19.465Z,95389.63
2022-11-17T18:53:48.633Z,95394.06
2022-11-17T18:56:20.715Z,95401.69
2022-11-17T18:58:49.138Z,95404.38
2022-11-17T19:01:18.147Z,95403.53
2022-11-17T19:03:47.619Z,95410.66
2022-11-17T19:06:16.697Z,95413.56
2022-11-17T19:08:44.960Z,95413.53
2022-11-17T19:11:13.476Z,95410.75
2022-11-17T19:13:43.850Z,95412.25
2022-11-17T19:16:13.150Z,95420.88
2022-11-17T19:18:41.444Z,95422.50
2022-11-17T19:21:10.656Z,95424.84
2022-11-17T19:23:39.736Z,95424.91
2022-11-17T19:26:09.520Z,95428.25
2022-11-17T19:28:38.056Z,95426.88
2022-11-17T19:31:08.515Z,95432.94
2022-11-17T19:33:37.476Z,95432.97
2022-11-17T19:36:06.703Z,95434.13
2022-11-17T19:38:35.234Z,95444.47
2022-11-17T19:41:04.380Z,95438.44
2022-11-17T19:43:33.241Z,95446.59
2022-11-17T19:46:01.777Z,95453.97
2022-11-17T19:48:31.750Z,95457.69
2022-11-17T19:51:00.545Z,95455.94
2022-11-17T19:53:28.982Z,95457.06
2022-11-17T19:55:57.344Z,95456.75
2022-11-17T19:58:27.111Z,95467.31
2022-11-17T20:01:05.371Z,95467.28
2022-11-17T20:03:35.882Z,95478.38
2022-11-17T20:06:10.230Z,95482.88
2022-11-17T20:08:38.780Z,95478.94
2022-11-17T20:11:13.740Z,95484.94
2022-11-17T20:13:42.583Z,95484.72
2022-11-17T20:16:12.833Z,95489.81
2022-11-17T20:18:43.000Z,95492.75
2022-11-17T20:21:11.415Z,95499.78
2022-11-17T20:23:40.093Z,95499.59
2022-11-17T20:26:08.867Z,95498.28
2022-11-17T20:28:37.594Z,95501.63
2022-11-17T20:31:07.925Z,95502.06
2022-11-17T20:33:36.333Z,95503.66
2022-11-17T20:36:06.505Z,95505.63
2022-11-17T20:38:34.953Z,95511.81
2022-11-17T20:41:03.510Z,95510.59
2022-11-17T20:43:32.351Z,95512.16
2022-11-17T20:46:00.647Z,95511.97
2022-11-17T20:48:29.265Z,95514.91
2022-11-17T20:50:58.859Z,95519.63
2022-11-17T20:53:29.020Z,95522.75
2022-11-17T20:55:57.500Z,95530.91
2022-11-17T20:58:26.402Z,95524.00
2022-11-17T21:01:12.510Z,95525.69
2022-11-17T21:03:40.843Z,95531.88
2022-11-17T21:06:09.377Z,95529.19
2022-11-17T21:08:40.738Z,95538.00
2022-11-17T21:11:09.814Z,95546.13
2022-11-17T21:13:38.254Z,95545.41
2022-11-17T21:16:07.838Z,95541.25
2022-11-17T21:18:59.165Z,95546.91
2022-11-17T21:21:27.433Z,95545.34
2022-11-17T21:23:57.457Z,95549.88
2022-11-17T21:26:25.972Z,95547.88
2022-11-17T21:29:06.753Z,95541.44
2022-11-17T21:31:54.493Z,95543.81
2022-11-17T21:34:49.871Z,95553.91
2022-11-17T21:37:42.133Z,95556.53
2022-11-17T21:40:12.567Z,95553.44
2022-11-17T21:42:40.901Z,95557.44
2022-11-17T21:45:10.215Z,95560.09
2022-11-17T21:47:38.735Z,95567.63
2022-11-17T21:50:07.784Z,95568.91
2022-11-17T21:52:36.076Z,95576.13
2022-11-17T21:55:05.080Z,95573.44
2022-11-17T21:57:34.763Z,95578.25
2022-11-17T22:00:03.094Z,95581.09
2022-11-17T22:02:31.355Z,95588.47
2022-11-17T22:04:59.628Z,95578.13
2022-11-17T22:07:28.805Z,95591.66
2022-11-17T22:09:57.586Z,95588.31
2022-11-17T22:12:26.801Z,95587.81
2022-11-17T22:14:56.467Z,95585.97
2022-11-17T22:17:24.854Z,95594.50
2022-11-17T22:19:53.429Z,95589.16
2022-11-17T22:22:21.825Z,95587.47
2022-11-17T22:24:50.162Z,95597.84
2022-11-17T22:27:18.733Z,95592.34
2022-11-17T22:29:46.994Z,95592.88
2022-11-17T22:32:16.705Z,95591.19
2022-11-17T22:34:44.990Z,95594.69
2022-11-17T22:37:13.553Z,95593.69
2022-11-17T22:39:41.826Z,95597.38
2022-11-17T22:42:10.041Z,95604.34
2022-11-17T22:44:38.591Z,95604.03
2022-11-17T22:47:06.942Z,95604.66
2022-11-17T22:49:36.570Z,95604.50
2022-11-17T22:52:05.999Z,95608.84
2022-11-17T22:54:34.358Z,95617.00
2022-11-17T22:57:02.705Z,95618.66
2022-11-17T22:59:31.148Z,95615.16
2022-11-17T23:01:59.408Z,95624.84
2022-11-17T23:04:28.807Z,95632.28
2022-11-17T23:06:58.440Z,95630.16
2022-11-17T23:09:26.771Z,95629.44
2022-11-17T23:11:55.050Z,95631.31
2022-11-17T23:14:23.695Z,95637.50
2022-11-17T23:16:51.971Z,95641.94
2022-11-17T23:19:20.538Z,95644.28
2022-11-17T23:21:49.195Z,95651.03
2022-11-17T23:24:18.827Z,95643.78
2022-11-17T23:26:47.046Z,95647.16
2022-11-17T23:29:15.970Z,95650.69
2022-11-17T23:31:44.638Z,95649.78
2022-11-17T23:34:12.901Z,95657.25
2022-11-17T23:36:41.167Z,95654.34
2022-11-17T23:39:09.542Z,95654.13
2022-11-17T23:41:39.443Z,95662.19
2022-11-17T23:44:07.684Z,95657.63
2022-11-17T23:46:35.934Z,95658.28
2022-11-17T23:49:04.194Z,95657.06
2022-11-17T23:51:32.530Z,95645.09
2022-11-17T23:54:00.988Z,95650.91
2022-11-17T23:56:29.233Z,95652.50
2022-11-17T23:58:59.294Z,95656.78
